Time;durP1;ratioP1;P1;durP2;ratioP2;P2;SDS_P1;SDS_P2;PMS_P1;PMS_P2;Temp;Humidity;BMP_temperature;BMP_pressure;BME280_temperature;BME280_humidity;BME280_pressure;Samples;Min_cycle;Max_cycle;Signal;HPM_P1;HPM_P2
2021/07/18 00:00:52;;;;;;;9.55;5.68;;;;;;;;;;5079688;28;20375;-84
2021/07/18 00:03:18;;;;;;;8.48;5.32;;;;;;;;;;5077951;28;20783;-85
2021/07/18 00:05:44;;;;;;;9.40;5.35;;;;;;;;;;5068634;28;20406;-84
2021/07/18 00:08:10;;;;;;;10.02;5.60;;;;;;;;;;5087884;28;20758;-84
2021/07/18 00:10:36;;;;;;;7.57;5.37;;;;;;;;;;5073040;28;20376;-86
2021/07/18 00:13:02;;;;;;;8.20;5.60;;;;;;;;;;5091936;28;20372;-84
2021/07/18 00:15:28;;;;;;;7.85;5.45;;;;;;;;;;5091500;28;20452;-86
2021/07/18 00:17:56;;;;;;;9.75;5.95;;;;;;;;;;5073833;28;20455;-86
2021/07/18 00:20:22;;;;;;;9.40;5.70;;;;;;;;;;5073731;28;20372;-85
2021/07/18 00:22:48;;;;;;;8.18;5.82;;;;;;;;;;5091863;28;21116;-85
2021/07/18 00:25:14;;;;;;;11.50;5.78;;;;;;;;;;5073331;28;20392;-85
2021/07/18 00:27:40;;;;;;;8.63;5.55;;;;;;;;;;5091972;28;20369;-86
2021/07/18 00:30:07;;;;;;;13.37;5.73;;;;;;;;;;5073641;28;20372;-86
2021/07/18 00:32:33;;;;;;;10.93;6.07;;;;;;;;;;5091752;28;20459;-84
2021/07/18 00:34:59;;;;;;;10.05;5.90;;;;;;;;;;5091709;28;20379;-84
2021/07/18 00:37:25;;;;;;;13.32;5.65;;;;;;;;;;5091616;28;20495;-84
2021/07/18 00:39:51;;;;;;;9.10;5.80;;;;;;;;;;5073202;28;20467;-84
2021/07/18 00:42:18;;;;;;;9.50;5.88;;;;;;;;;;5091602;28;20360;-85
2021/07/18 00:44:44;;;;;;;10.80;6.22;;;;;;;;;;5073410;28;20914;-86
2021/07/18 00:47:10;;;;;;;12.60;6.35;;;;;;;;;;5073552;28;20381;-86
2021/07/18 00:49:39;;;;;;;9.70;6.18;;;;;;;;;;5073283;28;20376;-85
2021/07/18 00:52:05;;;;;;;10.25;6.18;;;;;;;;;;5091439;28;20451;-86
2021/07/18 00:54:31;;;;;;;6.22;5.55;;;;;;;;;;5072976;28;20393;-86
2021/07/18 00:56:58;;;;;;;10.98;5.70;;;;;;;;;;5088212;28;20461;-84
2021/07/18 00:59:27;;;;;;;9.13;6.38;;;;;;;;;;5081438;28;20787;-86
2021/07/18 01:01:53;;;;;;;9.57;5.90;;;;;;;;;;5077936;28;20392;-86
2021/07/18 01:04:19;;;;;;;9.02;5.78;;;;;;;;;;5076846;28;20384;-87
2021/07/18 01:06:45;;;;;;;10.23;6.00;;;;;;;;;;5075719;28;20473;-86
2021/07/18 01:09:11;;;;;;;6.80;5.88;;;;;;;;;;5074857;28;20931;-86
2021/07/18 01:11:37;;;;;;;12.20;5.95;;;;;;;;;;5074963;28;20423;-86
2021/07/18 01:14:03;;;;;;;10.82;6.10;;;;;;;;;;5075476;28;20424;-86
2021/07/18 01:16:30;;;;;;;9.45;5.85;;;;;;;;;;5076616;28;20933;-87
2021/07/18 01:18:56;;;;;;;12.70;6.90;;;;;;;;;;5075599;28;20438;-89
2021/07/18 01:21:25;;;;;;;10.38;6.65;;;;;;;;;;5075368;28;20376;-87
2021/07/18 01:23:52;;;;;;;9.40;6.18;;;;;;;;;;5075325;28;20735;-87
2021/07/18 01:26:18;;;;;;;8.73;5.88;;;;;;;;;;5074699;28;20727;-88
2021/07/18 01:28:45;;;;;;;9.10;6.10;;;;;;;;;;5092687;28;20372;-85
2021/07/18 01:31:11;;;;;;;8.85;6.13;;;;;;;;;;5074841;28;20388;-87
2021/07/18 01:33:37;;;;;;;9.43;5.90;;;;;;;;;;5073028;28;20365;-86
2021/07/18 01:36:04;;;;;;;7.63;6.40;;;;;;;;;;5091219;28;20410;-89
2021/07/18 01:38:29;;;;;;;8.85;6.30;;;;;;;;;;5073903;28;20854;-86
2021/07/18 01:40:55;;;;;;;11.80;6.22;;;;;;;;;;5074286;28;20381;-89
2021/07/18 01:43:22;;;;;;;9.80;6.07;;;;;;;;;;5078253;28;20364;-89
2021/07/18 01:45:48;;;;;;;11.67;6.37;;;;;;;;;;5076262;28;20414;-90
2021/07/18 01:48:14;;;;;;;8.07;5.90;;;;;;;;;;5077042;28;20386;-91
2021/07/18 01:50:40;;;;;;;9.63;6.20;;;;;;;;;;5076049;28;20368;-91
2021/07/18 01:53:06;;;;;;;9.75;6.38;;;;;;;;;;5079016;28;20468;-86
2021/07/18 01:55:32;;;;;;;8.63;6.38;;;;;;;;;;5075756;28;20835;-90
2021/07/18 01:57:58;;;;;;;7.20;5.63;;;;;;;;;;5076587;28;20364;-91
2021/07/18 02:00:25;;;;;;;9.00;5.90;;;;;;;;;;5078170;28;20380;-92
2021/07/18 02:02:52;;;;;;;7.72;6.00;;;;;;;;;;5077907;28;20387;-88
2021/07/18 02:05:19;;;;;;;8.47;5.90;;;;;;;;;;5077205;28;20412;-90
2021/07/18 02:07:49;;;;;;;7.93;5.18;;;;;;;;;;5077224;28;20380;-89
2021/07/18 02:10:18;;;;;;;9.15;5.57;;;;;;;;;;5078145;28;20384;-90
2021/07/18 02:12:45;;;;;;;9.18;5.45;;;;;;;;;;5077630;28;20451;-91
2021/07/18 02:15:12;;;;;;;9.02;5.97;;;;;;;;;;5077217;28;20372;-89
2021/07/18 02:17:38;;;;;;;9.93;5.60;;;;;;;;;;5076296;28;20467;-90
2021/07/18 02:20:08;;;;;;;11.30;6.75;;;;;;;;;;5076795;28;20869;-87
2021/07/18 02:22:53;;;;;;;7.95;5.57;;;;;;;;;;5077711;28;20380;-87
2021/07/18 02:25:24;;;;;;;7.60;5.00;;;;;;;;;;5077199;28;20780;-90
2021/07/18 02:27:50;;;;;;;7.50;5.27;;;;;;;;;;5076747;28;20399;-94
2021/07/18 02:30:20;;;;;;;10.93;5.37;;;;;;;;;;5076194;28;20369;-90
2021/07/18 02:32:47;;;;;;;11.18;5.22;;;;;;;;;;5074891;28;20375;-89
2021/07/18 02:35:15;;;;;;;8.32;5.93;;;;;;;;;;5074168;28;20369;-92
2021/07/18 02:37:41;;;;;;;7.15;5.13;;;;;;;;;;5073069;28;20389;-88
2021/07/18 02:40:08;;;;;;;8.73;5.45;;;;;;;;;;5073283;28;20946;-90
2021/07/18 02:42:34;;;;;;;9.70;5.53;;;;;;;;;;5073208;28;20369;-87
2021/07/18 02:45:00;;;;;;;7.53;5.25;;;;;;;;;;5073157;28;20369;-90
2021/07/18 02:47:26;;;;;;;9.45;5.50;;;;;;;;;;5091686;28;20383;-91
2021/07/18 02:49:52;;;;;;;9.57;5.45;;;;;;;;;;5073235;28;20897;-89
2021/07/18 02:52:18;;;;;;;8.83;5.73;;;;;;;;;;5090925;28;20411;-92
2021/07/18 02:54:44;;;;;;;12.02;5.55;;;;;;;;;;5091131;28;20396;-91
2021/07/18 02:57:10;;;;;;;6.82;5.43;;;;;;;;;;5073015;28;20396;-89
2021/07/18 02:59:36;;;;;;;12.00;5.40;;;;;;;;;;5072765;28;20923;-90
2021/07/18 03:02:02;;;;;;;10.48;5.50;;;;;;;;;;5073016;28;20403;-89
2021/07/18 03:04:28;;;;;;;7.50;5.40;;;;;;;;;;5073125;28;20858;-88
2021/07/18 03:06:54;;;;;;;8.05;5.57;;;;;;;;;;5072759;28;20373;-88
2021/07/18 03:09:23;;;;;;;10.90;5.80;;;;;;;;;;5072691;28;20395;-86
2021/07/18 03:11:50;;;;;;;10.77;5.60;;;;;;;;;;5090636;28;20387;-91
2021/07/18 03:14:16;;;;;;;9.40;5.63;;;;;;;;;;5090711;28;20368;-88
2021/07/18 03:16:42;;;;;;;9.23;5.67;;;;;;;;;;5072195;28;20434;-88
2021/07/18 03:19:08;;;;;;;10.03;5.80;;;;;;;;;;5090610;28;20368;-86
2021/07/18 03:21:34;;;;;;;8.43;5.50;;;;;;;;;;5072384;28;20377;-87
2021/07/18 03:24:00;;;;;;;7.87;5.77;;;;;;;;;;5072113;28;20384;-86
2021/07/18 03:26:26;;;;;;;10.20;5.60;;;;;;;;;;5090321;28;20414;-86
2021/07/18 03:28:52;;;;;;;8.60;5.33;;;;;;;;;;5090033;28;20469;-85
2021/07/18 03:31:18;;;;;;;9.10;5.47;;;;;;;;;;5072913;28;20365;-86
2021/07/18 03:33:44;;;;;;;9.50;5.82;;;;;;;;;;5091269;28;20870;-87
2021/07/18 03:36:10;;;;;;;8.82;5.60;;;;;;;;;;5073642;28;20403;-87
2021/07/18 03:38:36;;;;;;;8.65;5.22;;;;;;;;;;5073186;28;20467;-86
2021/07/18 03:41:02;;;;;;;9.63;5.28;;;;;;;;;;5072287;28;20391;-86
2021/07/18 03:43:28;;;;;;;7.80;5.63;;;;;;;;;;5089941;28;20892;-86
2021/07/18 03:45:54;;;;;;;8.75;5.75;;;;;;;;;;5075674;28;20400;-88
2021/07/18 03:48:20;;;;;;;10.60;5.75;;;;;;;;;;5075810;28;20419;-87
2021/07/18 03:50:48;;;;;;;7.15;5.20;;;;;;;;;;5093833;28;20360;-86
2021/07/18 03:53:14;;;;;;;9.65;5.93;;;;;;;;;;5094005;28;20455;-87
2021/07/18 03:55:40;;;;;;;8.00;5.20;;;;;;;;;;5075830;28;20479;-87
2021/07/18 03:58:06;;;;;;;9.18;5.10;;;;;;;;;;5075874;28;20421;-89
2021/07/18 04:00:32;;;;;;;9.10;5.47;;;;;;;;;;5076018;28;20371;-87
2021/07/18 04:02:58;;;;;;;8.48;5.60;;;;;;;;;;5075692;28;20955;-88
2021/07/18 04:05:24;;;;;;;9.98;5.38;;;;;;;;;;5075415;28;20369;-89
2021/07/18 04:07:50;;;;;;;9.87;5.10;;;;;;;;;;5075522;28;20406;-89
2021/07/18 04:10:16;;;;;;;7.70;5.13;;;;;;;;;;5075449;28;20372;-86
2021/07/18 04:12:42;;;;;;;9.77;5.30;;;;;;;;;;5093766;28;20408;-86
2021/07/18 04:15:08;;;;;;;6.20;4.60;;;;;;;;;;5093665;28;20792;-90
2021/07/18 04:17:35;;;;;;;10.32;5.50;;;;;;;;;;5075321;28;20400;-86
2021/07/18 04:20:01;;;;;;;8.35;4.70;;;;;;;;;;5075218;28;20391;-87
2021/07/18 04:22:27;;;;;;;8.73;5.45;;;;;;;;;;5075376;28;20368;-89
2021/07/18 04:24:52;;;;;;;9.65;5.38;;;;;;;;;;5093670;28;20372;-87
2021/07/18 04:27:18;;;;;;;10.02;5.15;;;;;;;;;;5075341;28;20384;-87
2021/07/18 04:29:44;;;;;;;9.77;5.13;;;;;;;;;;5093307;28;20371;-87
2021/07/18 04:32:10;;;;;;;7.32;5.38;;;;;;;;;;5093458;28;20479;-85
2021/07/18 04:34:40;;;;;;;7.45;4.65;;;;;;;;;;5075213;28;20375;-89
2021/07/18 04:37:06;;;;;;;9.45;5.30;;;;;;;;;;5093739;28;20487;-87
2021/07/18 04:39:32;;;;;;;7.95;5.10;;;;;;;;;;5075524;28;20608;-85
2021/07/18 04:42:00;;;;;;;9.13;4.97;;;;;;;;;;5075549;28;20376;-86
2021/07/18 04:44:26;;;;;;;12.13;7.28;;;;;;;;;;5075320;28;20392;-85
2021/07/18 04:46:54;;;;;;;8.98;5.15;;;;;;;;;;5093377;28;20931;-86
2021/07/18 04:49:21;;;;;;;8.13;4.85;;;;;;;;;;5075173;28;20784;-87
2021/07/18 04:51:46;;;;;;;7.70;4.50;;;;;;;;;;5075061;28;20379;-85
2021/07/18 04:54:12;;;;;;;7.93;4.30;;;;;;;;;;5093427;28;20866;-85
2021/07/18 04:56:39;;;;;;;5.53;3.83;;;;;;;;;;5074162;28;20423;-85
2021/07/18 04:59:05;;;;;;;6.15;3.78;;;;;;;;;;5074863;28;20381;-88
2021/07/18 05:01:31;;;;;;;7.70;3.80;;;;;;;;;;5074632;28;20368;-87
2021/07/18 05:03:57;;;;;;;6.87;3.80;;;;;;;;;;5075078;28;20372;-87
2021/07/18 05:06:22;;;;;;;8.90;3.90;;;;;;;;;;5075499;28;20437;-86
2021/07/18 05:08:48;;;;;;;7.85;3.90;;;;;;;;;;5092799;28;20381;-87
2021/07/18 05:11:14;;;;;;;5.53;3.70;;;;;;;;;;5092671;28;20372;-87
2021/07/18 05:13:40;;;;;;;6.18;3.55;;;;;;;;;;5074607;28;20365;-87
2021/07/18 05:16:06;;;;;;;6.40;3.75;;;;;;;;;;5092396;28;20399;-86
2021/07/18 05:18:32;;;;;;;8.83;4.43;;;;;;;;;;5074460;28;20704;-87
2021/07/18 05:20:58;;;;;;;5.80;3.53;;;;;;;;;;5075051;28;20469;-88
2021/07/18 05:23:26;;;;;;;8.18;4.25;;;;;;;;;;5092801;28;20369;-88
2021/07/18 05:25:52;;;;;;;8.77;3.78;;;;;;;;;;5092232;28;20731;-86
2021/07/18 05:28:18;;;;;;;6.40;3.60;;;;;;;;;;5096794;28;20364;-81
2021/07/18 05:30:44;;;;;;;7.50;4.00;;;;;;;;;;5080493;28;20381;-85
2021/07/18 05:33:10;;;;;;;8.32;3.70;;;;;;;;;;5077803;28;20852;-86
2021/07/18 05:35:36;;;;;;;6.30;3.70;;;;;;;;;;5095038;28;20388;-87
2021/07/18 05:38:02;;;;;;;9.95;3.90;;;;;;;;;;5074544;28;20408;-88
2021/07/18 05:40:28;;;;;;;7.22;3.45;;;;;;;;;;5092118;28;20375;-86
2021/07/18 05:42:54;;;;;;;9.98;4.72;;;;;;;;;;5074144;28;20451;-87
2021/07/18 05:45:20;;;;;;;7.13;3.67;;;;;;;;;;5073968;28;20383;-86
2021/07/18 05:47:47;;;;;;;5.40;3.90;;;;;;;;;;5074333;28;20492;-87
2021/07/18 05:50:13;;;;;;;7.57;4.00;;;;;;;;;;5074109;28;20384;-86
2021/07/18 05:52:39;;;;;;;6.32;3.80;;;;;;;;;;5092712;28;20444;-86
2021/07/18 05:55:09;;;;;;;6.15;3.75;;;;;;;;;;5074028;28;20380;-86
2021/07/18 05:57:35;;;;;;;6.40;3.70;;;;;;;;;;5091986;28;20405;-91
2021/07/18 06:00:02;;;;;;;9.32;3.60;;;;;;;;;;5073884;28;20506;-86
2021/07/18 06:02:28;;;;;;;8.18;3.70;;;;;;;;;;5073775;28;20464;-87
2021/07/18 06:04:54;;;;;;;8.57;3.88;;;;;;;;;;5091959;28;20734;-85
2021/07/18 06:07:20;;;;;;;9.02;3.80;;;;;;;;;;5073473;28;20357;-86
2021/07/18 06:09:46;;;;;;;6.00;3.17;;;;;;;;;;5073857;28;20380;-88
2021/07/18 06:12:12;;;;;;;6.32;3.30;;;;;;;;;;5073755;28;20392;-87
2021/07/18 06:14:39;;;;;;;8.40;3.47;;;;;;;;;;5073451;28;20365;-88
2021/07/18 06:17:05;;;;;;;6.88;3.45;;;;;;;;;;5074000;28;20906;-89
2021/07/18 06:19:31;;;;;;;6.20;3.00;;;;;;;;;;5091538;28;20375;-88
2021/07/18 06:21:58;;;;;;;4.50;3.00;;;;;;;;;;5073170;28;20727;-86
2021/07/18 06:24:23;;;;;;;4.60;2.83;;;;;;;;;;5073682;28;20457;-88
2021/07/18 06:26:49;;;;;;;5.53;2.83;;;;;;;;;;5091445;28;20416;-84
2021/07/18 06:29:15;;;;;;;5.95;2.97;;;;;;;;;;5073247;28;20474;-91
2021/07/18 06:31:41;;;;;;;5.72;2.70;;;;;;;;;;5073370;28;20933;-91
2021/07/18 06:34:07;;;;;;;5.93;3.10;;;;;;;;;;5073967;28;20886;-89
2021/07/18 06:36:34;;;;;;;7.10;2.97;;;;;;;;;;5090632;28;20407;-87
2021/07/18 06:39:01;;;;;;;6.07;2.75;;;;;;;;;;5073472;28;20380;-86
2021/07/18 06:41:27;;;;;;;5.30;2.47;;;;;;;;;;5073695;28;20433;-86
2021/07/18 06:43:53;;;;;;;5.72;2.78;;;;;;;;;;5091319;28;20376;-88
2021/07/18 06:46:19;;;;;;;6.43;2.65;;;;;;;;;;5073454;28;20877;-88
2021/07/18 06:48:46;;;;;;;4.40;2.40;;;;;;;;;;5073621;28;20377;-87
2021/07/18 06:51:12;;;;;;;4.20;2.63;;;;;;;;;;5073436;28;20415;-89
2021/07/18 06:53:38;;;;;;;7.07;2.65;;;;;;;;;;5073026;28;20739;-86
2021/07/18 06:56:05;;;;;;;4.15;2.38;;;;;;;;;;5091350;28;20408;-87
2021/07/18 06:58:33;;;;;;;5.53;2.83;;;;;;;;;;5072715;28;20431;-86
2021/07/18 07:00:59;;;;;;;4.53;2.30;;;;;;;;;;5072651;28;20866;-87
2021/07/18 07:03:25;;;;;;;5.50;2.58;;;;;;;;;;5091242;28;20855;-87
2021/07/18 07:05:51;;;;;;;4.75;2.33;;;;;;;;;;5091260;28;20397;-88
2021/07/18 07:08:17;;;;;;;3.63;2.20;;;;;;;;;;5073500;28;20540;-86
2021/07/18 07:10:43;;;;;;;4.72;2.72;;;;;;;;;;5090775;28;20367;-89
2021/07/18 07:13:09;;;;;;;5.30;2.58;;;;;;;;;;5073426;28;20967;-89
2021/07/18 07:15:35;;;;;;;3.97;2.17;;;;;;;;;;5091282;28;20361;-87
2021/07/18 07:18:01;;;;;;;3.97;1.93;;;;;;;;;;5090819;28;20399;-84
2021/07/18 07:20:28;;;;;;;6.88;2.58;;;;;;;;;;5072539;28;20404;-86
2021/07/18 07:22:54;;;;;;;4.57;2.40;;;;;;;;;;5072898;28;20874;-85
2021/07/18 07:25:20;;;;;;;5.38;2.20;;;;;;;;;;5091241;28;20699;-85
2021/07/18 07:27:46;;;;;;;5.47;2.33;;;;;;;;;;5091113;28;20368;-86
2021/07/18 07:30:14;;;;;;;6.57;2.10;;;;;;;;;;5091697;28;20863;-84
2021/07/18 07:32:41;;;;;;;3.83;2.03;;;;;;;;;;5074129;28;20422;-85
2021/07/18 07:35:08;;;;;;;3.40;1.95;;;;;;;;;;5091224;28;20375;-86
2021/07/18 07:37:35;;;;;;;2.55;2.10;;;;;;;;;;5072699;28;20421;-87
2021/07/18 07:40:01;;;;;;;3.50;2.00;;;;;;;;;;5072350;28;20392;-85
2021/07/18 07:42:27;;;;;;;5.53;2.30;;;;;;;;;;5072814;28;20434;-87
2021/07/18 07:44:53;;;;;;;4.57;2.27;;;;;;;;;;5090636;28;20368;-88
2021/07/18 07:47:19;;;;;;;3.28;2.08;;;;;;;;;;5072487;28;20379;-86
2021/07/18 07:49:45;;;;;;;4.38;2.40;;;;;;;;;;5090312;28;20850;-87
2021/07/18 07:52:12;;;;;;;3.25;2.38;;;;;;;;;;5072695;28;20381;-88
2021/07/18 07:54:38;;;;;;;3.38;1.95;;;;;;;;;;5090584;28;20388;-89
2021/07/18 07:57:04;;;;;;;3.75;1.70;;;;;;;;;;5072402;28;20424;-87
2021/07/18 07:59:30;;;;;;;2.60;1.75;;;;;;;;;;5090524;28;20376;-87
2021/07/18 08:01:57;;;;;;;4.13;1.95;;;;;;;;;;5072335;28;20373;-85
2021/07/18 08:04:23;;;;;;;4.57;1.90;;;;;;;;;;5072218;28;20384;-84
2021/07/18 08:06:49;;;;;;;3.22;1.80;;;;;;;;;;5072234;28;20893;-85
2021/07/18 08:09:15;;;;;;;3.92;1.98;;;;;;;;;;5089931;28;21055;-83
2021/07/18 08:11:41;;;;;;;3.10;1.77;;;;;;;;;;5073098;28;20377;-86
2021/07/18 08:14:08;;;;;;;3.30;1.90;;;;;;;;;;5081365;28;20362;-86
2021/07/18 08:16:34;;;;;;;3.30;1.90;;;;;;;;;;5083148;28;20460;-86
2021/07/18 08:19:00;;;;;;;4.45;2.00;;;;;;;;;;5072199;28;20442;-86
2021/07/18 08:21:26;;;;;;;3.60;1.92;;;;;;;;;;5072294;28;20882;-86
2021/07/18 08:23:52;;;;;;;2.35;2.03;;;;;;;;;;5072443;28;20397;-90
2021/07/18 08:26:19;;;;;;;3.58;1.83;;;;;;;;;;5071891;28;20377;-87
2021/07/18 08:28:46;;;;;;;3.13;1.70;;;;;;;;;;5071866;28;20372;-89
2021/07/18 08:31:12;;;;;;;3.63;1.90;;;;;;;;;;5072952;28;20415;-90
2021/07/18 08:33:38;;;;;;;5.65;2.20;;;;;;;;;;5075415;28;20364;-89
2021/07/18 08:36:04;;;;;;;3.30;1.88;;;;;;;;;;5075604;28;20396;-88
2021/07/18 08:38:30;;;;;;;2.80;1.90;;;;;;;;;;5094250;28;20490;-89
2021/07/18 08:41:00;;;;;;;2.38;1.73;;;;;;;;;;5079852;28;20399;-92
2021/07/18 08:43:26;;;;;;;2.65;2.00;;;;;;;;;;5076304;28;20464;-86
2021/07/18 08:45:52;;;;;;;5.43;1.97;;;;;;;;;;5083099;28;20457;-88
2021/07/18 08:48:19;;;;;;;3.43;1.97;;;;;;;;;;5096707;28;20976;-87
2021/07/18 08:50:48;;;;;;;3.85;2.22;;;;;;;;;;5096237;28;20721;-86
2021/07/18 08:53:14;;;;;;;4.03;2.10;;;;;;;;;;5095813;28;20394;-86
2021/07/18 08:55:40;;;;;;;3.13;1.70;;;;;;;;;;5114102;28;20391;-89
2021/07/18 08:58:06;;;;;;;3.15;1.70;;;;;;;;;;5087750;28;20502;-88
2021/07/18 09:00:32;;;;;;;3.50;1.70;;;;;;;;;;5074938;28;20937;-92
2021/07/18 09:02:58;;;;;;;4.72;1.90;;;;;;;;;;5081702;28;20414;-85
2021/07/18 09:05:24;;;;;;;4.95;1.88;;;;;;;;;;5078567;28;20384;-86
2021/07/18 09:07:50;;;;;;;2.72;1.67;;;;;;;;;;5095110;28;20398;-87
2021/07/18 09:10:22;;;;;;;4.23;1.87;;;;;;;;;;5076015;28;20373;-87
2021/07/18 09:13:15;;;;;;;3.60;1.83;;;;;;;;;;5076735;28;20437;-87
2021/07/18 09:15:51;;;;;;;5.13;2.10;;;;;;;;;;5072541;28;20406;-87
2021/07/18 09:18:18;;;;;;;4.13;1.80;;;;;;;;;;5086487;28;20374;-87
2021/07/18 09:20:49;;;;;;;3.85;1.90;;;;;;;;;;5095655;28;20414;-91
2021/07/18 09:23:16;;;;;;;5.00;2.10;;;;;;;;;;5113272;28;20856;-89
2021/07/18 09:25:43;;;;;;;3.78;2.03;;;;;;;;;;5095345;28;20410;-88
2021/07/18 09:28:16;;;;;;;4.85;1.80;;;;;;;;;;5068897;28;20420;-88
2021/07/18 09:30:42;;;;;;;4.65;1.92;;;;;;;;;;5074976;28;20392;-88
2021/07/18 09:33:20;;;;;;;4.45;1.90;;;;;;;;;;5075479;28;20460;-87
2021/07/18 09:35:47;;;;;;;3.38;1.65;;;;;;;;;;5093541;28;20392;-88
2021/07/18 09:38:20;;;;;;;4.68;2.20;;;;;;;;;;5084812;28;20945;-87
2021/07/18 09:40:55;;;;;;;3.65;2.13;;;;;;;;;;5095385;28;20436;-89
2021/07/18 09:43:24;;;;;;;3.72;1.83;;;;;;;;;;5095841;28;20359;-86
2021/07/18 09:46:01;;;;;;;4.60;1.92;;;;;;;;;;5096080;28;20767;-91
2021/07/18 09:48:36;;;;;;;5.57;1.95;;;;;;;;;;5095263;28;20402;-85
2021/07/18 09:51:07;;;;;;;3.88;2.22;;;;;;;;;;5113643;28;20462;-88
2021/07/18 09:53:33;;;;;;;5.18;2.03;;;;;;;;;;5094462;28;20416;-88
2021/07/18 09:56:06;;;;;;;2.97;2.10;;;;;;;;;;5113465;28;20407;-88
2021/07/18 09:58:32;;;;;;;4.25;2.25;;;;;;;;;;5098773;28;20413;-87
2021/07/18 10:00:59;;;;;;;4.28;1.90;;;;;;;;;;5082992;28;20410;-87
2021/07/18 10:03:27;;;;;;;3.05;2.00;;;;;;;;;;5087657;28;20390;-88
2021/07/18 10:06:08;;;;;;;3.70;1.88;;;;;;;;;;5086963;28;21083;-85
2021/07/18 10:08:38;;;;;;;3.38;2.10;;;;;;;;;;5099048;28;20487;-89
2021/07/18 10:11:06;;;;;;;4.15;1.92;;;;;;;;;;5083513;28;20457;-88
2021/07/18 10:13:32;;;;;;;3.92;1.95;;;;;;;;;;5101427;27;20404;-86
2021/07/18 10:16:00;;;;;;;3.55;2.17;;;;;;;;;;5083382;27;20989;-87
2021/07/18 10:18:26;;;;;;;3.90;2.38;;;;;;;;;;5088309;28;20379;-88
2021/07/18 10:20:52;;;;;;;5.85;2.30;;;;;;;;;;5089075;28;20390;-86
2021/07/18 10:23:19;;;;;;;4.60;2.28;;;;;;;;;;5110795;27;20383;-91
2021/07/18 10:25:46;;;;;;;3.33;2.10;;;;;;;;;;5091962;28;20383;-89
2021/07/18 10:28:15;;;;;;;4.65;2.30;;;;;;;;;;5087403;27;20385;-89
2021/07/18 10:30:44;;;;;;;3.60;2.25;;;;;;;;;;5085294;28;20376;-87
2021/07/18 10:33:10;;;;;;;4.75;1.92;;;;;;;;;;5091035;28;20484;-86
2021/07/18 10:35:37;;;;;;;4.57;2.00;;;;;;;;;;5085646;27;20502;-87
2021/07/18 10:38:20;;;;;;;3.50;1.90;;;;;;;;;;5106138;27;20427;-87
2021/07/18 10:40:51;;;;;;;5.13;2.10;;;;;;;;;;5087533;28;20394;-86
2021/07/18 10:43:32;;;;;;;4.30;1.70;;;;;;;;;;5100399;28;20475;-88
2021/07/18 10:45:58;;;;;;;6.28;2.40;;;;;;;;;;5084803;28;20430;-86
2021/07/18 10:48:40;;;;;;;4.60;2.03;;;;;;;;;;5083566;28;20421;-86
2021/07/18 10:51:06;;;;;;;6.43;2.05;;;;;;;;;;5084338;28;20459;-85
2021/07/18 10:53:34;;;;;;;3.63;2.05;;;;;;;;;;5081614;28;20372;-88
2021/07/18 10:56:04;;;;;;;4.47;1.90;;;;;;;;;;5082652;28;20485;-86
2021/07/18 10:58:39;;;;;;;4.43;1.80;;;;;;;;;;5091378;28;20382;-87
2021/07/18 11:01:11;;;;;;;2.95;1.80;;;;;;;;;;5108819;28;20390;-90
2021/07/18 11:03:38;;;;;;;4.50;1.75;;;;;;;;;;5095053;27;20426;-88
2021/07/18 11:06:25;;;;;;;2.87;1.80;;;;;;;;;;5108153;27;20393;-87
2021/07/18 11:09:06;;;;;;;3.95;2.05;;;;;;;;;;5090350;28;20387;-89
2021/07/18 11:11:38;;;;;;;4.25;1.70;;;;;;;;;;5101387;27;20385;-89
2021/07/18 11:14:21;;;;;;;4.80;1.90;;;;;;;;;;5086968;28;20431;-89
2021/07/18 11:16:54;;;;;;;4.22;2.00;;;;;;;;;;5083927;27;20395;-87
2021/07/18 11:19:38;;;;;;;3.75;1.90;;;;;;;;;;5103434;28;20382;-87
2021/07/18 11:22:14;;;;;;;3.13;1.55;;;;;;;;;;5102550;28;20945;-89
2021/07/18 11:24:56;;;;;;;3.00;1.40;;;;;;;;;;5079547;28;20382;-88
2021/07/18 11:27:42;;;;;;;4.43;1.77;;;;;;;;;;5088224;28;20469;-88
2021/07/18 11:30:36;;;;;;;3.47;1.70;;;;;;;;;;5085339;28;20932;-87
2021/07/18 11:33:23;;;;;;;3.27;1.60;;;;;;;;;;5079510;28;20371;-89
2021/07/18 11:35:55;;;;;;;3.37;1.40;;;;;;;;;;5073742;28;20508;-88
2021/07/18 11:38:21;;;;;;;5.85;1.70;;;;;;;;;;5088740;28;20378;-87
2021/07/18 11:40:47;;;;;;;4.05;1.85;;;;;;;;;;5083036;28;20396;-90
2021/07/18 11:43:14;;;;;;;5.20;1.70;;;;;;;;;;5080042;28;20474;-88
2021/07/18 11:45:41;;;;;;;3.50;1.70;;;;;;;;;;5080631;28;21093;-88
2021/07/18 11:48:07;;;;;;;3.80;1.70;;;;;;;;;;5082406;28;20747;-89
2021/07/18 11:50:33;;;;;;;3.55;1.45;;;;;;;;;;5103939;28;20538;-89
2021/07/18 11:53:00;;;;;;;5.53;1.67;;;;;;;;;;5100089;28;20382;-88
2021/07/18 11:55:26;;;;;;;5.70;1.90;;;;;;;;;;5095645;28;20388;-86
2021/07/18 11:57:55;;;;;;;4.55;1.75;;;;;;;;;;5098039;28;20920;-86
2021/07/18 12:00:22;;;;;;;2.83;1.47;;;;;;;;;;5108453;28;20386;-91
2021/07/18 12:02:51;;;;;;;4.07;1.70;;;;;;;;;;5087348;28;20367;-89
2021/07/18 12:05:22;;;;;;;2.85;1.60;;;;;;;;;;5089482;28;20536;-89
2021/07/18 12:08:02;;;;;;;3.35;1.60;;;;;;;;;;5091799;28;20923;-89
2021/07/18 12:10:29;;;;;;;3.67;1.67;;;;;;;;;;5089492;28;20401;-88
2021/07/18 12:12:55;;;;;;;2.63;1.55;;;;;;;;;;5089875;28;20486;-87
2021/07/18 12:15:25;;;;;;;3.95;1.75;;;;;;;;;;5109461;28;20387;-88
2021/07/18 12:18:02;;;;;;;3.75;1.75;;;;;;;;;;5089531;28;20415;-87
2021/07/18 12:20:28;;;;;;;4.80;1.60;;;;;;;;;;5092415;28;20980;-87
2021/07/18 12:23:08;;;;;;;4.50;1.60;;;;;;;;;;5091973;28;20749;-89
2021/07/18 12:25:38;;;;;;;3.73;1.70;;;;;;;;;;5091233;28;20388;-90
2021/07/18 12:28:08;;;;;;;6.65;1.98;;;;;;;;;;5092877;28;20860;-90
2021/07/18 12:30:34;;;;;;;3.92;1.60;;;;;;;;;;5089752;28;20396;-88
2021/07/18 12:33:08;;;;;;;3.28;1.42;;;;;;;;;;5086940;28;20522;-89
2021/07/18 12:35:35;;;;;;;4.13;1.65;;;;;;;;;;5085066;28;20374;-88
2021/07/18 12:38:07;;;;;;;7.75;1.90;;;;;;;;;;5118394;27;20371;-92
2021/07/18 12:40:41;;;;;;;4.90;1.73;;;;;;;;;;5083382;28;20510;-89
2021/07/18 12:43:11;;;;;;;2.92;1.48;;;;;;;;;;5090841;28;20383;-89
2021/07/18 12:45:39;;;;;;;3.15;1.60;;;;;;;;;;5091264;28;20747;-87
2021/07/18 12:48:05;;;;;;;2.13;1.45;;;;;;;;;;5089527;28;21214;-88
2021/07/18 12:50:35;;;;;;;4.00;1.80;;;;;;;;;;5091151;28;20374;-87
2021/07/18 12:53:01;;;;;;;5.05;1.70;;;;;;;;;;5091560;28;20386;-87
2021/07/18 12:55:35;;;;;;;4.90;1.70;;;;;;;;;;5108849;28;20813;-89
2021/07/18 12:58:20;;;;;;;5.50;1.60;;;;;;;;;;5091494;28;20915;-89
2021/07/18 13:00:47;;;;;;;2.10;1.60;;;;;;;;;;5089030;28;20998;-89
2021/07/18 13:03:13;;;;;;;4.15;1.50;;;;;;;;;;5105231;28;20376;-89
2021/07/18 13:05:40;;;;;;;4.53;1.55;;;;;;;;;;5100381;27;20380;-89
2021/07/18 13:08:06;;;;;;;8.23;1.88;;;;;;;;;;5085211;28;20379;-87
2021/07/18 13:10:43;;;;;;;10.02;2.10;;;;;;;;;;5103104;28;20881;-87
2021/07/18 13:13:09;;;;;;;3.75;1.30;;;;;;;;;;5099182;28;20858;-90
2021/07/18 13:15:36;;;;;;;4.13;1.73;;;;;;;;;;5088941;28;20368;-89
2021/07/18 13:18:05;;;;;;;2.90;1.38;;;;;;;;;;5080064;28;20437;-88
2021/07/18 13:20:32;;;;;;;6.30;1.70;;;;;;;;;;5082493;28;20465;-86
2021/07/18 13:23:01;;;;;;;4.17;1.80;;;;;;;;;;5089503;28;20528;-89
2021/07/18 13:25:31;;;;;;;2.70;1.50;;;;;;;;;;5091922;28;20454;-87
2021/07/18 13:27:59;;;;;;;4.03;1.88;;;;;;;;;;5091130;28;20377;-87
2021/07/18 13:30:26;;;;;;;5.07;1.88;;;;;;;;;;5075520;28;20719;-87
2021/07/18 13:32:53;;;;;;;4.87;1.53;;;;;;;;;;5079920;28;20384;-88
2021/07/18 13:35:21;;;;;;;2.88;1.50;;;;;;;;;;5080321;28;20910;-87
2021/07/18 13:37:49;;;;;;;2.80;1.40;;;;;;;;;;5098933;28;20403;-89
2021/07/18 13:40:21;;;;;;;4.40;1.90;;;;;;;;;;5082899;28;20723;-89
2021/07/18 13:42:47;;;;;;;2.97;1.48;;;;;;;;;;5083046;28;20389;-85
2021/07/18 13:45:13;;;;;;;3.67;1.50;;;;;;;;;;5082977;28;20392;-86
2021/07/18 13:47:39;;;;;;;3.40;1.95;;;;;;;;;;5101303;28;20761;-87
2021/07/18 13:50:06;;;;;;;3.70;1.60;;;;;;;;;;5083175;28;20472;-86
2021/07/18 13:52:32;;;;;;;3.58;1.40;;;;;;;;;;5083155;28;20515;-85
2021/07/18 13:55:00;;;;;;;5.85;1.70;;;;;;;;;;5080578;28;20471;-87
2021/07/18 13:57:26;;;;;;;4.05;1.60;;;;;;;;;;5084083;28;20430;-87
2021/07/18 13:59:53;;;;;;;3.78;1.42;;;;;;;;;;5101460;28;20825;-87
2021/07/18 14:02:19;;;;;;;5.78;1.60;;;;;;;;;;5083030;28;20389;-87
2021/07/18 14:04:45;;;;;;;5.30;1.70;;;;;;;;;;5082659;28;20377;-87
2021/07/18 14:07:11;;;;;;;3.97;1.60;;;;;;;;;;5082090;28;20752;-87
2021/07/18 14:09:37;;;;;;;7.72;1.83;;;;;;;;;;5083247;28;20743;-85
2021/07/18 14:12:04;;;;;;;3.58;1.55;;;;;;;;;;5100726;28;20830;-88
2021/07/18 14:14:30;;;;;;;3.50;1.73;;;;;;;;;;5100876;28;20432;-89
2021/07/18 14:16:56;;;;;;;5.32;1.70;;;;;;;;;;5084185;28;20392;-86
2021/07/18 14:19:22;;;;;;;3.42;1.60;;;;;;;;;;5082258;28;20376;-86
2021/07/18 14:21:50;;;;;;;5.97;1.83;;;;;;;;;;5083614;28;20381;-88
2021/07/18 14:24:16;;;;;;;7.15;1.65;;;;;;;;;;5081746;28;20384;-87
2021/07/18 14:26:42;;;;;;;4.37;1.60;;;;;;;;;;5099841;28;20418;-87
2021/07/18 14:29:09;;;;;;;5.63;1.80;;;;;;;;;;5101930;28;20461;-89
2021/07/18 14:31:36;;;;;;;4.13;1.70;;;;;;;;;;5081784;28;20420;-90
2021/07/18 14:34:02;;;;;;;4.15;1.48;;;;;;;;;;5102935;28;20460;-89
2021/07/18 14:36:29;;;;;;;6.15;1.60;;;;;;;;;;5082530;28;20400;-88
2021/07/18 14:38:55;;;;;;;4.05;1.50;;;;;;;;;;5101071;28;20410;-87
2021/07/18 14:41:21;;;;;;;4.95;1.60;;;;;;;;;;5090422;28;20404;-87
2021/07/18 14:43:47;;;;;;;4.13;1.95;;;;;;;;;;5089594;28;20455;-87